createdAt,value
2023-02-07T00:01:30.119Z,7.07
2023-02-07T00:03:58.797Z,7.33
2023-02-07T00:06:30.634Z,7.20
2023-02-07T00:09:00.106Z,7.30
2023-02-07T00:11:28.589Z,7.30
2023-02-07T00:13:58.900Z,7.57
2023-02-07T00:16:26.697Z,7.17
2023-02-07T00:18:58.993Z,7.57
2023-02-07T00:21:30.601Z,8.07
2023-02-07T00:23:58.826Z,8.80
2023-02-07T00:26:27.578Z,7.30
2023-02-07T00:28:56.510Z,7.50
2023-02-07T00:31:25.881Z,7.63
2023-02-07T00:33:56.152Z,7.37
2023-02-07T00:36:26.178Z,8.43
2023-02-07T00:38:57.682Z,9.00
2023-02-07T00:41:25.508Z,7.77
2023-02-07T00:43:53.653Z,8.30
2023-02-07T00:46:21.675Z,8.70
2023-02-07T00:48:50.331Z,8.97
2023-02-07T00:51:18.060Z,7.53
2023-02-07T00:53:45.837Z,8.07
2023-02-07T00:56:15.620Z,7.20
2023-02-07T00:58:43.407Z,8.13
2023-02-07T01:01:11.214Z,7.83
2023-02-07T01:03:39.027Z,7.93
2023-02-07T01:06:08.048Z,7.87
2023-02-07T01:08:36.543Z,8.53
2023-02-07T01:11:05.838Z,8.63
2023-02-07T01:13:35.567Z,7.50
2023-02-07T01:16:03.881Z,7.67
2023-02-07T01:18:31.997Z,7.87
2023-02-07T01:20:59.750Z,7.70
2023-02-07T01:23:27.497Z,8.20
2023-02-07T01:25:55.262Z,8.00
2023-02-07T01:28:22.993Z,8.33
2023-02-07T01:30:52.317Z,8.63
2023-02-07T01:33:20.133Z,7.53
2023-02-07T01:35:47.816Z,8.50
2023-02-07T01:38:17.121Z,8.60
2023-02-07T01:40:45.079Z,8.67
2023-02-07T01:43:18.102Z,8.90
2023-02-07T01:45:46.061Z,11.33
2023-02-07T01:48:17.969Z,11.27
2023-02-07T01:50:49.011Z,11.37
2023-02-07T01:53:20.301Z,10.80
2023-02-07T01:55:50.399Z,11.13
2023-02-07T01:58:18.829Z,11.80
2023-02-07T02:00:47.253Z,11.50
2023-02-07T02:03:16.402Z,11.20
2023-02-07T02:05:48.569Z,11.07
2023-02-07T02:08:17.830Z,12.03
2023-02-07T02:11:22.858Z,10.43
2023-02-07T02:14:00.131Z,10.70
2023-02-07T02:16:37.376Z,10.77
2023-02-07T02:19:38.518Z,9.90
2023-02-07T02:22:33.998Z,9.57
2023-02-07T02:25:40.880Z,10.00
2023-02-07T02:28:48.969Z,10.30
2023-02-07T02:31:59.222Z,9.60
2023-02-07T02:34:45.233Z,9.53
2023-02-07T02:37:26.684Z,8.70
2023-02-07T02:40:04.739Z,9.40
2023-02-07T02:42:52.554Z,8.87
2023-02-07T02:45:27.508Z,9.60
2023-02-07T02:47:57.650Z,9.20
2023-02-07T02:50:30.788Z,9.50
2023-02-07T02:53:07.284Z,10.27
2023-02-07T02:55:54.525Z,9.27
2023-02-07T02:58:41.791Z,9.50
2023-02-07T03:01:24.861Z,9.73
2023-02-07T03:04:34.131Z,9.60
2023-02-07T03:07:37.725Z,9.57
2023-02-07T03:10:18.129Z,9.13
2023-02-07T03:13:01.835Z,9.90
2023-02-07T03:15:48.907Z,10.57
2023-02-07T03:18:24.077Z,9.53
2023-02-07T03:21:01.342Z,10.23
2023-02-07T03:23:39.269Z,10.10
2023-02-07T03:26:10.016Z,10.57
2023-02-07T03:28:50.356Z,9.90
2023-02-07T03:31:31.977Z,10.00
2023-02-07T03:34:15.346Z,9.87
2023-02-07T03:36:56.232Z,10.20
2023-02-07T03:39:33.109Z,9.93
2023-02-07T03:42:15.852Z,9.30
2023-02-07T03:44:49.808Z,10.27
2023-02-07T03:47:18.919Z,9.43
2023-02-07T03:49:46.979Z,9.40
2023-02-07T03:52:14.755Z,10.20
2023-02-07T03:54:43.896Z,9.40
2023-02-07T03:57:11.605Z,10.17
2023-02-07T03:59:39.642Z,10.00
2023-02-07T04:02:07.382Z,9.13
2023-02-07T04:04:35.367Z,10.00
2023-02-07T04:07:03.134Z,9.27
2023-02-07T04:09:31.016Z,10.07
2023-02-07T04:12:00.185Z,9.77
2023-02-07T04:14:28.208Z,10.03
2023-02-07T04:16:56.008Z,9.53
2023-02-07T04:19:23.849Z,9.60
2023-02-07T04:21:51.661Z,10.50
2023-02-07T04:24:19.552Z,10.00
2023-02-07T04:26:47.390Z,9.67
2023-02-07T04:29:16.818Z,8.90
2023-02-07T04:31:44.740Z,10.40
2023-02-07T04:34:13.018Z,9.70
2023-02-07T04:36:41.030Z,10.43
2023-02-07T04:39:09.066Z,10.90
2023-02-07T04:41:37.049Z,10.50
2023-02-07T04:44:04.813Z,10.50
2023-02-07T04:46:34.193Z,10.20
2023-02-07T04:49:02.014Z,10.07
2023-02-07T04:51:29.748Z,10.00
2023-02-07T04:53:57.517Z,10.03
2023-02-07T04:56:25.680Z,9.70
2023-02-07T04:58:53.545Z,10.87
2023-02-07T05:01:21.443Z,9.47
2023-02-07T05:03:50.689Z,9.30
2023-02-07T05:06:18.551Z,9.67
2023-02-07T05:08:46.421Z,9.43
2023-02-07T05:11:14.680Z,9.77
2023-02-07T05:13:42.411Z,9.43
2023-02-07T05:16:10.175Z,10.00
2023-02-07T05:18:38.015Z,10.60
2023-02-07T05:21:07.343Z,11.17
2023-02-07T05:23:35.196Z,9.13
2023-02-07T05:26:02.923Z,10.97
2023-02-07T05:28:30.767Z,11.83
2023-02-07T05:30:58.714Z,12.00
2023-02-07T05:33:25.711Z,10.90
2023-02-07T05:35:53.613Z,10.70
2023-02-07T05:38:22.759Z,13.57
2023-02-07T05:40:50.859Z,12.50
2023-02-07T05:43:18.846Z,12.80
2023-02-07T05:45:46.679Z,12.87
2023-02-07T05:48:14.963Z,13.77
2023-02-07T05:50:42.785Z,13.20
2023-02-07T05:53:11.302Z,14.23
2023-02-07T05:55:40.688Z,13.80
2023-02-07T05:58:08.771Z,13.20
2023-02-07T06:00:36.594Z,14.20
2023-02-07T06:03:04.761Z,14.27
2023-02-07T06:05:33.234Z,14.13
2023-02-07T06:08:01.069Z,14.70
2023-02-07T06:10:28.888Z,14.67
2023-02-07T06:12:58.076Z,17.03
2023-02-07T06:15:25.918Z,19.03
2023-02-07T06:17:53.725Z,18.77
2023-02-07T06:20:22.711Z,17.43
2023-02-07T06:22:50.502Z,16.63
2023-02-07T06:25:20.972Z,15.50
2023-02-07T06:27:49.420Z,11.67
2023-02-07T06:30:19.621Z,14.83
2023-02-07T06:32:47.477Z,14.07
2023-02-07T06:35:15.905Z,14.10
2023-02-07T06:37:43.750Z,11.70
2023-02-07T06:40:12.403Z,13.60
2023-02-07T06:42:40.176Z,17.53
2023-02-07T06:45:08.847Z,16.23
2023-02-07T06:47:37.968Z,16.50
2023-02-07T06:50:08.225Z,16.67
2023-02-07T06:52:36.935Z,17.93
2023-02-07T06:55:12.436Z,17.23
2023-02-07T06:57:45.553Z,17.83
2023-02-07T07:00:33.649Z,17.50
2023-02-07T07:03:16.167Z,16.23
2023-02-07T07:05:59.506Z,17.17
2023-02-07T07:08:39.166Z,17.17
2023-02-07T07:11:07.921Z,17.17
2023-02-07T07:13:44.839Z,17.70
2023-02-07T07:16:41.244Z,16.70
2023-02-07T07:19:20.022Z,16.00
2023-02-07T07:22:13.957Z,15.53
2023-02-07T07:24:44.077Z,15.03
2023-02-07T07:27:18.519Z,14.33
2023-02-07T07:30:37.876Z,14.90
2023-02-07T07:32:56.573Z,14.43
2023-02-07T07:35:41.317Z,14.13
2023-02-07T07:38:11.051Z,14.30
2023-02-07T07:40:50.743Z,15.67
2023-02-07T07:46:20.188Z,15.10
2023-02-07T07:49:00.267Z,15.03
2023-02-07T07:51:33.560Z,16.30
2023-02-07T07:54:06.614Z,14.97
2023-02-07T07:56:44.974Z,15.37
2023-02-07T08:02:42.040Z,17.20
2023-02-07T08:05:15.924Z,22.43
2023-02-07T08:08:01.728Z,21.83
2023-02-07T08:10:54.672Z,17.47
2023-02-07T08:13:40.614Z,20.30
2023-02-07T08:16:18.302Z,19.40
2023-02-07T08:18:52.147Z,18.47
2023-02-07T08:21:33.027Z,18.83
2023-02-07T08:24:23.430Z,18.43
2023-02-07T08:27:03.963Z,18.97
2023-02-07T08:29:43.409Z,19.43
2023-02-07T08:32:24.832Z,19.70
2023-02-07T08:34:58.936Z,16.30
2023-02-07T08:37:33.474Z,16.93
2023-02-07T08:40:09.710Z,19.67
2023-02-07T08:42:48.663Z,20.20
2023-02-07T08:45:18.231Z,19.63
2023-02-07T08:47:49.338Z,17.67
2023-02-07T08:50:23.547Z,18.43
2023-02-07T08:53:01.589Z,19.97
2023-02-07T08:55:42.395Z,19.60
2023-02-07T08:58:13.872Z,15.50
2023-02-07T09:00:46.943Z,16.43
2023-02-07T09:03:19.131Z,14.37
2023-02-07T09:05:50.536Z,18.03
2023-02-07T09:08:22.374Z,17.63
2023-02-07T09:10:55.797Z,17.67
2023-02-07T09:13:27.179Z,16.47
2023-02-07T09:16:04.566Z,16.30
2023-02-07T09:18:33.290Z,17.27
2023-02-07T09:21:04.762Z,16.10
2023-02-07T09:23:35.916Z,15.87
2023-02-07T09:26:11.071Z,13.67
2023-02-07T09:28:40.026Z,12.50
2023-02-07T09:31:14.886Z,16.43
2023-02-07T09:33:52.521Z,13.57
2023-02-07T09:36:28.655Z,16.03
2023-02-07T09:38:57.718Z,13.67
2023-02-07T09:41:41.698Z,13.63
2023-02-07T09:44:17.138Z,15.40
2023-02-07T09:46:54.434Z,14.87
2023-02-07T09:49:32.120Z,12.97
2023-02-07T09:52:02.152Z,14.03
2023-02-07T09:54:34.335Z,14.03
2023-02-07T09:57:09.433Z,13.00
2023-02-07T09:59:44.899Z,12.40
2023-02-07T10:02:19.764Z,12.90
2023-02-07T10:04:51.301Z,12.33
2023-02-07T10:07:19.429Z,13.63
2023-02-07T10:09:47.730Z,12.30
2023-02-07T10:12:38.846Z,12.27
2023-02-07T10:15:24.858Z,11.77
2023-02-07T10:18:05.452Z,12.60
2023-02-07T10:20:38.741Z,10.83
2023-02-07T10:23:22.295Z,11.77
2023-02-07T10:26:03.945Z,11.00
2023-02-07T10:29:07.268Z,11.67
2023-02-07T10:31:40.929Z,11.43
2023-02-07T10:34:15.286Z,11.30
2023-02-07T10:36:46.776Z,11.83
2023-02-07T10:39:22.990Z,11.33
2023-02-07T10:41:52.280Z,10.67
2023-02-07T10:44:21.212Z,10.73
2023-02-07T10:46:56.555Z,8.77
2023-02-07T10:49:27.622Z,8.67
2023-02-07T10:51:58.134Z,10.73
2023-02-07T10:54:26.049Z,9.43
2023-02-07T10:57:01.656Z,10.93
2023-02-07T10:59:38.383Z,8.83
2023-02-07T11:02:37.538Z,10.03
2023-02-07T11:05:27.327Z,9.83
2023-02-07T11:08:00.316Z,10.43
2023-02-07T11:10:32.262Z,10.53
2023-02-07T11:13:02.004Z,8.10
2023-02-07T11:15:39.234Z,9.20
2023-02-07T11:18:09.334Z,9.27
2023-02-07T11:20:40.127Z,9.60
2023-02-07T11:23:13.073Z,10.60
2023-02-07T11:25:44.791Z,10.57
2023-02-07T11:28:21.244Z,8.30
2023-02-07T11:30:55.851Z,9.90
2023-02-07T11:33:29.025Z,10.10
2023-02-07T11:36:06.886Z,8.77
2023-02-07T11:38:40.092Z,9.33
2023-02-07T11:41:18.359Z,9.50
2023-02-07T11:43:58.244Z,9.83
2023-02-07T11:46:35.530Z,10.03
2023-02-07T11:49:11.358Z,10.10
2023-02-07T11:51:39.225Z,8.37
2023-02-07T11:54:12.675Z,9.10
2023-02-07T11:56:42.885Z,8.70
2023-02-07T11:59:16.546Z,8.83
2023-02-07T12:01:45.674Z,8.77
2023-02-07T12:04:19.301Z,9.13
2023-02-07T12:06:52.362Z,9.50
2023-02-07T12:09:30.964Z,9.77
2023-02-07T12:12:01.016Z,10.37
2023-02-07T12:14:34.632Z,9.50
2023-02-07T12:17:04.625Z,9.67
2023-02-07T12:19:36.701Z,8.23
2023-02-07T12:22:08.785Z,10.20
2023-02-07T12:24:41.526Z,9.17
2023-02-07T12:27:15.811Z,9.60
2023-02-07T12:29:55.706Z,7.27
2023-02-07T12:32:31.471Z,9.60
2023-02-07T12:35:06.992Z,8.97
2023-02-07T12:37:41.234Z,9.70
2023-02-07T12:40:19.484Z,8.47
2023-02-07T12:42:53.375Z,7.63
2023-02-07T12:45:34.300Z,10.10
2023-02-07T12:48:12.644Z,8.70
2023-02-07T12:50:56.206Z,8.90
2023-02-07T12:53:38.141Z,9.80
2023-02-07T12:56:18.256Z,8.80
2023-02-07T12:58:55.716Z,9.50
2023-02-07T13:01:35.756Z,9.67
2023-02-07T13:04:39.243Z,8.67
2023-02-07T13:07:20.102Z,7.57
2023-02-07T13:09:53.672Z,8.93
2023-02-07T13:12:27.823Z,7.83
2023-02-07T13:15:06.986Z,8.20
2023-02-07T13:17:50.571Z,9.50
2023-02-07T13:20:29.820Z,9.70
2023-02-07T13:23:01.507Z,7.87
2023-02-07T13:25:33.344Z,8.07
2023-02-07T13:28:09.088Z,7.47
2023-02-07T13:30:37.367Z,7.57
2023-02-07T13:33:18.655Z,6.90
2023-02-07T13:35:48.199Z,9.03
2023-02-07T13:38:22.574Z,8.17
2023-02-07T13:40:59.601Z,9.97
2023-02-07T13:43:39.418Z,8.60
2023-02-07T13:46:13.479Z,6.93
2023-02-07T13:48:45.353Z,8.33
2023-02-07T13:51:21.313Z,7.67
2023-02-07T13:53:59.586Z,6.50
2023-02-07T13:56:50.367Z,8.80
2023-02-07T13:59:41.136Z,6.57
2023-02-07T14:02:17.596Z,6.03
2023-02-07T14:04:51.143Z,7.03
2023-02-07T14:07:26.147Z,7.73
2023-02-07T14:09:56.894Z,6.40
2023-02-07T14:12:27.537Z,7.50
2023-02-07T14:15:02.728Z,7.57
2023-02-07T14:18:01.277Z,6.93
2023-02-07T14:20:49.339Z,7.63
2023-02-07T14:23:19.355Z,7.53
2023-02-07T14:25:50.527Z,7.30
2023-02-07T14:28:22.959Z,7.30
2023-02-07T14:31:02.856Z,7.27
2023-02-07T14:33:35.219Z,7.00
2023-02-07T14:36:22.711Z,7.00
2023-02-07T14:39:04.460Z,8.33
2023-02-07T14:41:36.225Z,7.17
2023-02-07T14:44:10.039Z,7.67
2023-02-07T14:46:40.971Z,8.00
2023-02-07T14:49:16.135Z,7.13
2023-02-07T14:51:48.059Z,6.77
2023-02-07T14:54:21.130Z,7.97
2023-02-07T14:57:02.476Z,7.83
2023-02-07T14:59:36.075Z,7.37
2023-02-07T15:02:33.080Z,7.73
2023-02-07T15:05:18.408Z,7.47
2023-02-07T15:07:47.315Z,7.20
2023-02-07T15:10:16.719Z,7.17
2023-02-07T15:12:47.085Z,7.37
2023-02-07T15:15:21.505Z,6.67
2023-02-07T15:17:50.453Z,6.97
2023-02-07T15:20:20.697Z,9.27
2023-02-07T15:22:50.178Z,7.57
2023-02-07T15:25:18.375Z,7.80
2023-02-07T15:28:01.121Z,7.53
2023-02-07T15:30:29.473Z,8.70
2023-02-07T15:32:57.427Z,8.30
2023-02-07T15:35:27.857Z,9.07
2023-02-07T15:37:56.720Z,9.30
2023-02-07T15:40:26.964Z,9.50
2023-02-07T15:42:56.466Z,9.20
2023-02-07T15:45:28.774Z,8.93
2023-02-07T15:48:01.587Z,9.03
2023-02-07T15:50:32.423Z,9.27
2023-02-07T15:53:02.545Z,9.40
2023-02-07T15:55:34.432Z,9.77
2023-02-07T15:58:03.042Z,9.33
2023-02-07T16:00:37.624Z,9.60
2023-02-07T16:03:08.562Z,8.57
2023-02-07T16:05:38.649Z,8.83
2023-02-07T16:08:09.375Z,9.13
2023-02-07T16:10:40.870Z,8.60
2023-02-07T16:13:19.070Z,7.80
2023-02-07T16:15:56.816Z,8.40
2023-02-07T16:18:39.620Z,8.17
2023-02-07T16:21:12.008Z,9.20
2023-02-07T16:23:40.271Z,7.87
2023-02-07T16:26:08.330Z,7.80
2023-02-07T16:28:36.309Z,8.00
2023-02-07T16:31:06.110Z,7.80
2023-02-07T16:33:34.078Z,7.97
2023-02-07T16:36:01.918Z,8.23
2023-02-07T16:38:30.532Z,8.43
2023-02-07T16:40:58.432Z,7.27
2023-02-07T16:43:36.548Z,7.27
2023-02-07T16:46:06.806Z,8.40
2023-02-07T16:48:34.877Z,7.90
2023-02-07T16:51:04.033Z,9.00
2023-02-07T16:53:31.977Z,8.43
2023-02-07T16:56:00.487Z,9.10
2023-02-07T16:58:31.127Z,8.67
2023-02-07T17:00:59.061Z,8.33
2023-02-07T17:03:28.336Z,8.73
2023-02-07T17:05:57.858Z,33.73
2023-02-07T17:08:30.104Z,17.60
2023-02-07T17:11:01.531Z,8.87
2023-02-07T17:13:29.449Z,7.87
2023-02-07T17:16:00.442Z,7.57
2023-02-07T17:18:29.767Z,8.40
2023-02-07T17:20:57.625Z,7.93
2023-02-07T17:23:28.510Z,9.53
2023-02-07T17:25:56.332Z,10.37
2023-02-07T17:28:24.215Z,9.33
2023-02-07T17:30:54.249Z,8.33
2023-02-07T17:33:21.963Z,7.53
2023-02-07T17:35:51.568Z,7.80
2023-02-07T17:38:19.362Z,8.77
2023-02-07T17:40:47.249Z,8.30
2023-02-07T17:43:15.004Z,8.93
2023-02-07T17:45:42.828Z,7.73
2023-02-07T17:48:12.180Z,8.40
2023-02-07T17:50:42.104Z,8.87
2023-02-07T17:53:11.948Z,9.90
2023-02-07T17:55:40.064Z,8.70
2023-02-07T17:58:07.972Z,8.70
2023-02-07T18:00:38.134Z,8.23
2023-02-07T18:03:07.324Z,8.43
2023-02-07T18:05:35.260Z,8.00
2023-02-07T18:08:03.291Z,9.10
2023-02-07T18:10:34.956Z,8.77
2023-02-07T18:13:02.941Z,8.57
2023-02-07T18:15:31.318Z,8.63
2023-02-07T18:17:59.280Z,9.03
2023-02-07T18:20:28.839Z,9.97
2023-02-07T18:22:58.108Z,9.57
2023-02-07T18:25:27.607Z,9.67
2023-02-07T18:27:57.545Z,8.57
2023-02-07T18:30:27.635Z,9.33
2023-02-07T18:32:55.752Z,9.70
2023-02-07T18:35:23.627Z,9.20
2023-02-07T18:37:51.432Z,9.63
2023-02-07T18:40:19.252Z,9.20
2023-02-07T18:42:47.415Z,9.37
2023-02-07T18:45:16.702Z,9.97
2023-02-07T18:47:48.341Z,9.97
2023-02-07T18:50:19.551Z,10.17
2023-02-07T18:52:50.394Z,11.63
2023-02-07T18:55:18.244Z,10.23
2023-02-07T18:57:46.370Z,10.87
2023-02-07T19:00:16.447Z,10.97
2023-02-07T19:02:44.328Z,12.73
2023-02-07T19:05:12.234Z,13.10
2023-02-07T19:07:40.039Z,12.23
2023-02-07T19:10:12.173Z,10.17
2023-02-07T19:12:40.312Z,11.30
2023-02-07T19:15:08.916Z,12.60
2023-02-07T19:17:38.197Z,14.23
2023-02-07T19:20:06.506Z,12.53
2023-02-07T19:22:36.173Z,13.60
2023-02-07T19:25:05.100Z,13.43
2023-02-07T19:27:32.983Z,14.40
2023-02-07T19:30:00.928Z,14.83
2023-02-07T19:32:29.013Z,15.53
2023-02-07T19:34:58.284Z,18.03
2023-02-07T19:37:26.101Z,17.20
2023-02-07T19:39:56.310Z,16.10
2023-02-07T19:42:25.172Z,18.03
2023-02-07T19:44:53.484Z,13.70
2023-02-07T19:47:21.249Z,15.27
2023-02-07T19:49:54.649Z,16.83
2023-02-07T19:52:24.193Z,15.47
2023-02-07T19:54:53.412Z,15.30
2023-02-07T19:57:21.846Z,15.90
2023-02-07T19:59:49.646Z,17.00
2023-02-07T20:02:17.484Z,17.13
2023-02-07T20:04:45.290Z,17.43
2023-02-07T20:07:13.052Z,19.50
2023-02-07T20:09:42.217Z,19.13
2023-02-07T20:12:09.962Z,17.63
2023-02-07T20:14:37.858Z,18.53
2023-02-07T20:17:05.696Z,16.70
2023-02-07T20:19:33.532Z,18.40
2023-02-07T20:22:01.491Z,17.17
2023-02-07T20:24:29.460Z,18.33
2023-02-07T20:26:58.813Z,20.63
2023-02-07T20:29:26.674Z,20.73
2023-02-07T20:31:54.922Z,21.30
2023-02-07T20:34:22.817Z,20.73
2023-02-07T20:36:50.579Z,17.53
2023-02-07T20:39:21.702Z,22.23
2023-02-07T20:41:50.568Z,17.60
2023-02-07T20:44:21.914Z,21.20
2023-02-07T20:46:50.941Z,21.60
2023-02-07T20:49:22.205Z,22.63
2023-02-07T20:51:51.907Z,22.13
2023-02-07T20:54:23.000Z,21.37
2023-02-07T20:56:53.510Z,22.60
2023-02-07T20:59:24.297Z,22.97
2023-02-07T21:01:52.403Z,22.43
2023-02-07T21:04:20.383Z,22.73
2023-02-07T21:06:48.372Z,22.10
2023-02-07T21:09:16.550Z,22.77
2023-02-07T21:11:46.513Z,23.00
2023-02-07T21:14:16.489Z,23.07
2023-02-07T21:16:46.022Z,23.13
2023-02-07T21:19:14.792Z,23.33
2023-02-07T21:21:42.996Z,22.63
2023-02-07T21:24:11.017Z,24.77
2023-02-07T21:26:38.799Z,23.93
2023-02-07T21:29:07.436Z,24.80
2023-02-07T21:31:36.098Z,25.37
2023-02-07T21:34:06.445Z,25.43
2023-02-07T21:36:37.509Z,24.07
2023-02-07T21:39:08.358Z,27.17
2023-02-07T21:41:37.382Z,27.13
2023-02-07T21:44:05.902Z,26.07
2023-02-07T21:46:35.998Z,26.33
2023-02-07T21:49:06.439Z,26.73
2023-02-07T21:51:36.284Z,26.03
2023-02-07T21:54:07.297Z,27.57
2023-02-07T21:56:37.129Z,27.20
2023-02-07T21:59:06.687Z,27.20
2023-02-07T22:01:36.533Z,27.20
2023-02-07T22:04:08.772Z,27.33
2023-02-07T22:06:36.536Z,29.77
2023-02-07T22:09:05.613Z,27.10
2023-02-07T22:11:35.883Z,26.50
2023-02-07T22:14:04.820Z,27.90
2023-02-07T22:16:33.663Z,28.83
2023-02-07T22:19:03.416Z,28.67
2023-02-07T22:21:35.004Z,26.57
2023-02-07T22:24:03.916Z,28.17
2023-02-07T22:26:32.719Z,29.13
2023-02-07T22:29:00.543Z,27.67
2023-02-07T22:31:31.001Z,27.23
2023-02-07T22:34:01.646Z,29.00
2023-02-07T22:36:34.377Z,26.80
2023-02-07T22:39:04.840Z,26.67
2023-02-07T22:41:33.507Z,28.33
2023-02-07T22:44:02.077Z,28.73
2023-02-07T22:46:31.221Z,30.50
2023-02-07T22:48:59.071Z,30.00
2023-02-07T22:51:29.513Z,30.97
2023-02-07T22:54:00.628Z,31.00
2023-02-07T22:56:29.141Z,30.20
2023-02-07T22:58:57.552Z,31.17
2023-02-07T23:01:27.794Z,30.37
2023-02-07T23:03:56.676Z,29.37
2023-02-07T23:06:25.689Z,27.53
2023-02-07T23:08:54.555Z,29.77
2023-02-07T23:11:24.796Z,27.97
2023-02-07T23:13:53.618Z,28.53
2023-02-07T23:16:23.287Z,27.77
2023-02-07T23:18:52.913Z,28.10
2023-02-07T23:21:23.090Z,27.93
2023-02-07T23:23:51.476Z,26.70
2023-02-07T23:26:21.722Z,27.50
2023-02-07T23:28:51.487Z,31.70
2023-02-07T23:31:21.268Z,31.17
2023-02-07T23:33:49.328Z,32.17
2023-02-07T23:36:18.026Z,33.27
2023-02-07T23:38:46.500Z,34.03
2023-02-07T23:41:14.476Z,32.70
2023-02-07T23:43:42.245Z,32.00
2023-02-07T23:46:12.367Z,30.63
2023-02-07T23:48:40.238Z,30.50
2023-02-07T23:51:08.312Z,30.60
2023-02-07T23:53:36.729Z,31.53
2023-02-07T23:56:05.703Z,31.27
2023-02-07T23:58:34.544Z,29.97
